createdAt,value
2018-09-24T00:01:20.153Z,2.10
2018-09-24T00:03:48.920Z,2.70
2018-09-24T00:06:17.849Z,1.90
2018-09-24T00:08:46.819Z,2.17
2018-09-24T00:11:16.260Z,2.40
2018-09-24T00:13:45.200Z,2.23
2018-09-24T00:16:14.076Z,1.40
2018-09-24T00:18:43.024Z,1.87
2018-09-24T00:21:11.968Z,1.90
2018-09-24T00:23:41.644Z,1.73
2018-09-24T00:26:11.181Z,1.60
2018-09-24T00:28:41.392Z,1.80
2018-09-24T00:31:11.237Z,1.50
2018-09-24T00:33:41.562Z,1.67
2018-09-24T00:36:10.510Z,1.70
2018-09-24T00:38:40.502Z,1.93
2018-09-24T00:41:09.860Z,1.60
2018-09-24T00:43:39.465Z,1.20
2018-09-24T00:46:08.791Z,1.70
2018-09-24T00:48:39.425Z,1.70
2018-09-24T00:51:08.474Z,1.63
2018-09-24T00:53:38.617Z,1.57
2018-09-24T00:56:09.622Z,1.47
2018-09-24T00:58:39.227Z,1.50
2018-09-24T01:01:08.445Z,1.93
2018-09-24T01:03:37.412Z,2.43
2018-09-24T01:06:07.890Z,2.10
2018-09-24T01:08:36.919Z,1.73
2018-09-24T01:11:05.936Z,1.73
2018-09-24T01:13:34.806Z,1.80
2018-09-24T01:16:03.979Z,1.67
2018-09-24T01:18:32.957Z,1.43
2018-09-24T01:21:01.946Z,1.60
2018-09-24T01:23:32.843Z,1.60
2018-09-24T01:26:01.827Z,1.97
2018-09-24T01:28:30.678Z,1.60
2018-09-24T01:30:59.726Z,1.70
2018-09-24T01:33:29.209Z,1.80
2018-09-24T01:35:58.142Z,1.83
2018-09-24T01:38:27.094Z,1.30
2018-09-24T01:40:56.409Z,1.60
2018-09-24T01:43:25.894Z,1.80
2018-09-24T01:45:55.403Z,1.30
2018-09-24T01:48:24.942Z,1.47
2018-09-24T01:50:55.023Z,1.80
2018-09-24T01:53:24.512Z,1.40
2018-09-24T01:55:53.543Z,1.77
2018-09-24T01:58:22.469Z,1.17
2018-09-24T02:00:51.993Z,1.63
2018-09-24T02:03:21.021Z,1.73
2018-09-24T02:05:51.325Z,1.87
2018-09-24T02:08:20.851Z,1.67
2018-09-24T02:10:49.827Z,2.10
2018-09-24T02:13:18.821Z,1.60
2018-09-24T02:15:47.682Z,1.50
2018-09-24T02:18:16.491Z,2.00
2018-09-24T02:20:47.783Z,1.67
2018-09-24T02:23:17.898Z,1.97
2018-09-24T02:25:46.963Z,1.77
2018-09-24T02:28:16.720Z,1.90
2018-09-24T02:30:45.740Z,1.90
2018-09-24T02:33:14.630Z,1.77
2018-09-24T02:35:49.501Z,1.57
2018-09-24T02:38:19.246Z,1.70
2018-09-24T02:40:48.839Z,1.83
2018-09-24T02:43:26.348Z,2.30
2018-09-24T02:45:56.077Z,2.00
2018-09-24T02:48:26.315Z,1.60
2018-09-24T02:50:55.312Z,1.80
2018-09-24T02:53:24.272Z,2.40
2018-09-24T02:55:54.290Z,1.60
2018-09-24T02:58:23.682Z,1.77
2018-09-24T03:00:53.161Z,1.83
2018-09-24T03:03:22.041Z,1.90
2018-09-24T03:05:51.632Z,2.77
2018-09-24T03:08:20.594Z,2.23
2018-09-24T03:10:49.889Z,2.20
2018-09-24T03:13:20.240Z,2.13
2018-09-24T03:15:49.302Z,1.70
2018-09-24T03:18:18.370Z,1.80
2018-09-24T03:20:48.029Z,2.20
2018-09-24T03:23:17.963Z,2.20
2018-09-24T03:25:47.945Z,2.33
2018-09-24T03:28:16.954Z,2.20
2018-09-24T03:30:45.929Z,2.37
2018-09-24T03:33:14.873Z,1.80
2018-09-24T03:35:44.043Z,2.47
2018-09-24T03:38:12.946Z,2.60
2018-09-24T03:40:42.512Z,2.10
2018-09-24T03:43:11.447Z,1.90
2018-09-24T03:45:41.285Z,1.77
2018-09-24T03:48:11.540Z,1.90
2018-09-24T03:50:41.098Z,1.97
2018-09-24T03:53:10.048Z,1.90
2018-09-24T03:55:39.072Z,1.97
2018-09-24T03:58:08.716Z,2.20
2018-09-24T04:00:38.324Z,2.40
2018-09-24T04:03:07.343Z,2.77
2018-09-24T04:05:41.667Z,2.20
2018-09-24T04:08:15.852Z,2.37
2018-09-24T04:10:49.907Z,2.53
2018-09-24T04:13:24.571Z,2.50
2018-09-24T04:15:59.212Z,2.17
2018-09-24T04:18:34.227Z,2.30
2018-09-24T04:21:09.033Z,2.60
2018-09-24T04:23:43.467Z,1.87
2018-09-24T04:26:17.574Z,2.47
2018-09-24T04:28:51.674Z,2.43
2018-09-24T04:31:25.962Z,2.30
2018-09-24T04:34:00.456Z,2.20
2018-09-24T04:36:34.644Z,2.20
2018-09-24T04:39:08.991Z,2.40
2018-09-24T04:41:43.249Z,2.10
2018-09-24T04:44:17.321Z,2.33
2018-09-24T04:46:51.959Z,2.33
2018-09-24T04:49:26.399Z,2.50
2018-09-24T04:52:00.560Z,2.40
2018-09-24T04:54:34.695Z,2.20
2018-09-24T04:57:08.939Z,2.30
2018-09-24T04:59:42.965Z,2.63
2018-09-24T05:02:17.031Z,2.43
2018-09-24T05:04:51.389Z,1.93
2018-09-24T05:07:25.404Z,2.67
2018-09-24T05:09:59.532Z,2.40
2018-09-24T05:12:33.477Z,2.17
2018-09-24T05:15:08.239Z,2.67
2018-09-24T05:17:42.515Z,2.10
2018-09-24T05:20:16.742Z,2.30
2018-09-24T05:22:51.103Z,1.93
2018-09-24T05:25:25.525Z,2.20
2018-09-24T05:28:00.586Z,2.10
2018-09-24T05:30:34.659Z,2.50
2018-09-24T05:33:09.979Z,2.27
2018-09-24T05:35:44.205Z,2.37
2018-09-24T05:38:18.838Z,1.87
2018-09-24T05:40:53.068Z,2.03
2018-09-24T05:43:27.229Z,2.00
2018-09-24T05:46:01.292Z,2.70
2018-09-24T05:48:35.488Z,2.20
2018-09-24T05:51:12.490Z,1.90
2018-09-24T05:53:46.703Z,2.20
2018-09-24T05:56:22.629Z,2.30
2018-09-24T05:58:56.882Z,3.17
2018-09-24T06:01:31.094Z,1.80
2018-09-24T06:04:05.116Z,2.53
2018-09-24T06:06:39.322Z,2.47
2018-09-24T06:09:14.240Z,2.53
2018-09-24T06:11:48.741Z,2.70
2018-09-24T06:14:22.981Z,1.90
2018-09-24T06:17:00.588Z,2.00
2018-09-24T06:19:35.102Z,2.50
2018-09-24T06:22:09.710Z,2.33
2018-09-24T06:24:44.304Z,2.00
2018-09-24T06:27:18.440Z,2.27
2018-09-24T06:29:53.688Z,2.00
2018-09-24T06:32:27.813Z,2.43
2018-09-24T06:35:02.581Z,2.80
2018-09-24T06:37:36.572Z,2.13
2018-09-24T06:40:10.849Z,1.80
2018-09-24T06:42:45.606Z,2.77
2018-09-24T06:45:19.766Z,2.17
2018-09-24T06:47:54.115Z,2.20
2018-09-24T06:50:28.278Z,2.37
2018-09-24T06:53:02.968Z,2.17
2018-09-24T06:55:37.192Z,2.60
2018-09-24T06:58:11.582Z,3.37
2018-09-24T07:00:45.825Z,2.70
2018-09-24T07:03:20.016Z,2.63
2018-09-24T07:05:54.272Z,2.60
2018-09-24T07:08:28.526Z,2.20
2018-09-24T07:11:09.043Z,2.50
2018-09-24T07:13:43.952Z,2.47
2018-09-24T07:16:18.247Z,2.23
2018-09-24T07:18:52.542Z,2.33
2018-09-24T07:21:26.828Z,2.90
2018-09-24T07:24:00.879Z,2.30
2018-09-24T07:26:34.811Z,2.27
2018-09-24T07:29:09.512Z,2.30
2018-09-24T07:31:43.621Z,2.00
2018-09-24T07:34:17.843Z,2.13
2018-09-24T07:36:52.119Z,2.43
2018-09-24T07:39:26.356Z,2.07
2018-09-24T07:42:00.411Z,1.80
2018-09-24T07:44:34.750Z,1.77
2018-09-24T07:47:08.916Z,1.70
2018-09-24T07:49:44.281Z,1.50
2018-09-24T07:52:19.680Z,1.63
2018-09-24T07:54:54.784Z,1.37
2018-09-24T07:57:29.535Z,2.17
2018-09-24T08:00:04.553Z,1.87
2018-09-24T08:02:38.554Z,1.90
2018-09-24T08:05:13.393Z,1.80
2018-09-24T08:07:48.255Z,1.93
2018-09-24T08:10:22.567Z,2.20
2018-09-24T08:12:56.632Z,1.23
2018-09-24T08:15:31.588Z,2.07
2018-09-24T08:18:05.956Z,1.87
2018-09-24T08:20:40.435Z,1.50
2018-09-24T08:23:14.760Z,1.90
2018-09-24T08:25:49.155Z,1.33
2018-09-24T08:28:23.518Z,1.73
2018-09-24T08:30:58.459Z,1.47
2018-09-24T08:33:32.729Z,1.87
2018-09-24T08:36:07.021Z,1.13
2018-09-24T08:38:41.144Z,1.10
2018-09-24T08:41:15.342Z,1.13
2018-09-24T08:43:49.933Z,1.40
2018-09-24T08:53:35.271Z,1.30
2018-09-24T08:56:09.316Z,1.20
2018-09-24T08:58:44.635Z,1.40
2018-09-24T09:01:18.756Z,1.10
2018-09-24T09:03:52.808Z,1.73
2018-09-24T09:06:30.058Z,0.80
2018-09-24T09:09:04.002Z,1.00
2018-09-24T09:11:38.768Z,0.90
2018-09-24T09:14:13.397Z,1.10
2018-09-24T09:16:47.667Z,0.83
2018-09-24T09:19:22.014Z,1.27
2018-09-24T09:21:56.237Z,0.83
2018-09-24T09:24:30.384Z,0.77
2018-09-24T09:27:04.497Z,0.63
2018-09-24T09:29:38.470Z,1.00
2018-09-24T09:32:12.493Z,0.50
2018-09-24T09:34:46.589Z,1.03
2018-09-24T09:37:20.626Z,0.77
2018-09-24T09:39:55.548Z,0.80
2018-09-24T09:42:30.849Z,0.73
2018-09-24T09:45:05.104Z,0.50
2018-09-24T09:47:39.937Z,0.80
2018-09-24T09:50:13.910Z,0.57
2018-09-24T09:52:49.041Z,0.80
2018-09-24T09:55:24.075Z,0.50
2018-09-24T09:58:00.972Z,0.60
2018-09-24T10:00:35.288Z,0.80
2018-09-24T10:03:12.783Z,0.60
2018-09-24T10:05:53.351Z,0.63
2018-09-24T10:08:27.462Z,0.67
2018-09-24T10:11:01.599Z,0.40
2018-09-24T10:13:36.437Z,0.50
2018-09-24T10:16:10.552Z,0.60
2018-09-24T10:18:44.830Z,0.60
2018-09-24T10:21:20.393Z,0.80
2018-09-24T10:23:55.318Z,0.70
2018-09-24T10:26:29.404Z,0.70
2018-09-24T10:29:03.764Z,0.60
2018-09-24T10:31:37.966Z,0.30
2018-09-24T10:34:13.240Z,0.50
2018-09-24T10:36:47.160Z,0.50
2018-09-24T10:39:21.397Z,0.57
2018-09-24T10:41:57.041Z,0.50
2018-09-24T10:44:31.062Z,0.50
2018-09-24T10:47:05.390Z,0.63
2018-09-24T10:49:39.570Z,0.50
2018-09-24T10:52:14.681Z,1.10
2018-09-24T10:54:48.890Z,0.37
2018-09-24T10:57:24.252Z,0.40
2018-09-24T10:59:58.476Z,0.47
2018-09-24T11:02:32.734Z,0.70
2018-09-24T11:05:06.967Z,1.00
2018-09-24T11:07:42.063Z,1.83
2018-09-24T11:10:16.425Z,0.70
2018-09-24T11:12:50.600Z,0.50
2018-09-24T11:15:24.951Z,0.50
2018-09-24T11:17:59.254Z,0.53
2018-09-24T11:20:33.968Z,0.87
2018-09-24T11:23:08.795Z,0.50
2018-09-24T11:25:43.010Z,0.50
2018-09-24T11:28:17.078Z,0.40
2018-09-24T11:30:51.278Z,0.60
2018-09-24T11:33:25.964Z,0.43
2018-09-24T11:36:00.382Z,0.20
2018-09-24T11:38:34.363Z,0.47
2018-09-24T11:41:09.056Z,0.30
2018-09-24T11:43:43.434Z,0.17
2018-09-24T11:46:17.655Z,0.47
2018-09-24T11:48:52.000Z,0.20
2018-09-24T11:51:26.007Z,0.40
2018-09-24T11:54:00.388Z,0.37
2018-09-24T11:56:34.489Z,0.40
2018-09-24T11:59:10.068Z,0.57
2018-09-24T12:01:44.589Z,0.87
2018-09-24T12:04:18.927Z,0.40
2018-09-24T12:06:53.291Z,0.50
2018-09-24T12:09:28.332Z,0.70
2018-09-24T12:12:02.498Z,1.13
2018-09-24T12:14:36.822Z,0.63
2018-09-24T12:17:11.388Z,0.43
2018-09-24T12:19:45.756Z,2.00
2018-09-24T12:22:19.972Z,1.37
2018-09-24T12:24:54.238Z,0.90
2018-09-24T12:27:28.785Z,1.03
2018-09-24T12:30:02.963Z,0.70
2018-09-24T12:32:37.130Z,0.80
2018-09-24T12:35:11.204Z,1.00
2018-09-24T12:37:45.920Z,0.77
2018-09-24T12:40:20.532Z,0.50
2018-09-24T12:42:55.541Z,0.67
2018-09-24T12:45:29.947Z,0.40
2018-09-24T12:48:04.215Z,1.80
2018-09-24T12:50:38.497Z,0.47
2018-09-24T12:53:13.007Z,0.80
2018-09-24T12:55:47.279Z,0.70
2018-09-24T12:58:21.907Z,0.83
2018-09-24T13:00:56.748Z,0.70
2018-09-24T13:03:31.010Z,0.97
2018-09-24T13:06:05.211Z,1.10
2018-09-24T13:08:39.456Z,0.67
2018-09-24T13:11:13.701Z,0.80
2018-09-24T13:13:47.910Z,0.70
2018-09-24T13:16:22.024Z,1.17
2018-09-24T13:18:56.259Z,0.60
2018-09-24T13:21:30.359Z,0.70
2018-09-24T13:24:04.431Z,0.73
2018-09-24T13:26:42.349Z,1.23
2018-09-24T13:29:16.417Z,0.30
2018-09-24T13:31:50.498Z,0.53
2018-09-24T13:34:24.845Z,0.50
2018-09-24T13:36:59.090Z,0.60
2018-09-24T13:39:33.943Z,0.70
2018-09-24T13:42:08.267Z,0.60
2018-09-24T13:44:42.380Z,0.40
2018-09-24T13:47:17.313Z,0.57
2018-09-24T13:49:51.392Z,0.80
2018-09-24T13:52:25.707Z,0.97
2018-09-24T13:54:59.984Z,1.10
2018-09-24T13:57:34.144Z,0.60
2018-09-24T14:00:10.327Z,0.83
2018-09-24T14:02:44.346Z,0.80
2018-09-24T14:05:19.044Z,0.90
2018-09-24T14:07:53.251Z,0.60
2018-09-24T14:10:28.030Z,0.67
2018-09-24T14:13:02.056Z,0.60
2018-09-24T14:15:36.221Z,0.77
2018-09-24T14:18:10.329Z,0.70
2018-09-24T14:20:45.163Z,1.53
2018-09-24T14:23:19.297Z,1.33
2018-09-24T14:25:53.730Z,1.00
2018-09-24T14:28:28.172Z,1.00
2018-09-24T14:31:02.333Z,1.10
2018-09-24T14:33:36.728Z,0.70
2018-09-24T14:36:11.148Z,0.90
2018-09-24T14:38:45.246Z,1.20
2018-09-24T14:41:19.346Z,1.80
2018-09-24T14:43:53.552Z,1.07
2018-09-24T14:46:28.013Z,1.03
2018-09-24T14:49:02.186Z,1.60
2018-09-24T14:51:36.389Z,1.20
2018-09-24T14:54:10.517Z,0.67
2018-09-24T14:56:44.699Z,0.83
2018-09-24T14:59:18.671Z,2.73
2018-09-24T15:01:53.655Z,1.20
2018-09-24T15:04:30.107Z,0.90
2018-09-24T15:07:04.100Z,0.80
2018-09-24T15:09:38.157Z,0.90
2018-09-24T15:12:12.336Z,1.10
2018-09-24T15:14:47.121Z,1.03
2018-09-24T15:17:21.386Z,1.10
2018-09-24T15:19:55.646Z,1.00
2018-09-24T15:22:30.546Z,1.05
2018-09-24T15:25:04.723Z,1.47
2018-09-24T15:27:39.092Z,0.93
2018-09-24T15:30:13.612Z,1.00
2018-09-24T15:32:47.842Z,0.60
2018-09-24T15:35:22.137Z,0.70
2018-09-24T15:37:56.422Z,0.70
2018-09-24T15:40:31.116Z,0.87
2018-09-24T15:43:05.237Z,0.57
2018-09-24T15:45:39.267Z,0.80
2018-09-24T15:48:13.926Z,0.70
2018-09-24T15:50:48.068Z,0.90
2018-09-24T15:53:22.307Z,0.67
2018-09-24T15:55:56.396Z,0.70
2018-09-24T15:58:30.402Z,0.60
2018-09-24T16:01:04.812Z,0.80
2018-09-24T16:03:39.448Z,0.70
2018-09-24T16:06:14.919Z,0.90
2018-09-24T16:08:49.093Z,0.50
2018-09-24T16:11:23.641Z,0.60
2018-09-24T16:13:57.820Z,0.70
2018-09-24T16:16:32.941Z,0.70
2018-09-24T16:19:07.100Z,0.80
2018-09-24T16:21:41.873Z,0.80
2018-09-24T16:24:16.116Z,0.60
2018-09-24T16:26:50.417Z,0.30
2018-09-24T16:29:24.515Z,0.53
2018-09-24T16:31:58.479Z,0.50
2018-09-24T16:34:32.633Z,0.95
2018-09-24T16:37:06.757Z,0.70
2018-09-24T16:39:41.492Z,0.63
2018-09-24T16:42:16.064Z,1.00
2018-09-24T16:44:50.142Z,0.60
2018-09-24T16:47:24.469Z,1.13
2018-09-24T16:49:58.955Z,0.70
2018-09-24T16:52:34.163Z,0.70
2018-09-24T16:55:08.949Z,0.97
2018-09-24T16:57:43.319Z,0.70
2018-09-24T17:00:17.646Z,0.80
2018-09-24T17:02:52.735Z,1.23
2018-09-24T17:05:26.704Z,1.77
2018-09-24T17:11:00.247Z,1.70
2018-09-24T17:13:34.545Z,1.17
2018-09-24T17:16:08.731Z,0.97
2018-09-24T17:18:44.564Z,1.00
2018-09-24T17:21:21.601Z,1.83
2018-09-24T17:23:55.776Z,1.73
2018-09-24T17:26:30.059Z,1.50
2018-09-24T17:29:04.311Z,1.60
2018-09-24T17:31:38.613Z,1.10
2018-09-24T17:34:13.361Z,0.87
2018-09-24T17:36:47.623Z,1.17
2018-09-24T17:39:21.651Z,1.00
2018-09-24T17:41:55.582Z,0.90
2018-09-24T17:44:29.760Z,0.73
2018-09-24T17:47:04.037Z,1.53
2018-09-24T17:49:38.177Z,1.50
2018-09-24T17:52:12.394Z,1.63
2018-09-24T17:54:46.585Z,1.50
2018-09-24T17:57:20.930Z,2.33
2018-09-24T17:59:54.772Z,1.70
2018-09-24T18:02:28.762Z,1.27
2018-09-24T18:05:03.200Z,0.93
2018-09-24T18:07:37.282Z,1.10
2018-09-24T18:10:11.325Z,1.30
2018-09-24T18:12:45.454Z,1.13
2018-09-24T18:15:20.713Z,1.17
2018-09-24T18:17:54.724Z,1.10
2018-09-24T18:20:28.988Z,1.00
2018-09-24T18:23:03.324Z,2.03
2018-09-24T18:25:44.289Z,1.80
2018-09-24T18:28:18.596Z,2.53
2018-09-24T18:30:52.844Z,4.13
2018-09-24T18:33:27.127Z,3.83
2018-09-24T18:36:01.601Z,4.00
2018-09-24T18:38:36.499Z,8.73
2018-09-24T18:41:10.913Z,7.03
2018-09-24T18:43:45.225Z,4.73
2018-09-24T18:46:19.626Z,4.60
2018-09-24T18:48:54.251Z,4.00
2018-09-24T18:51:28.732Z,3.33
2018-09-24T18:54:02.881Z,2.73
2018-09-24T18:56:37.089Z,3.17
2018-09-24T18:59:11.557Z,3.27
2018-09-24T19:01:45.734Z,2.03
2018-09-24T19:04:19.874Z,2.73
2018-09-24T19:06:55.431Z,2.77
2018-09-24T19:09:30.146Z,2.97
2018-09-24T19:12:04.423Z,2.37
2018-09-24T19:14:39.371Z,2.30
2018-09-24T19:17:13.723Z,2.20
2018-09-24T19:19:47.954Z,2.63
2018-09-24T19:22:23.284Z,1.73
2018-09-24T19:24:57.491Z,2.37
2018-09-24T19:27:31.846Z,2.30
2018-09-24T19:30:06.374Z,2.60
2018-09-24T19:32:40.649Z,2.40
2018-09-24T19:35:14.859Z,2.07
2018-09-24T19:37:49.170Z,2.50
2018-09-24T19:40:23.605Z,2.20
2018-09-24T19:42:57.641Z,1.50
2018-09-24T19:45:32.324Z,2.20
2018-09-24T19:48:06.570Z,2.60
2018-09-24T19:50:40.880Z,2.03
2018-09-24T19:53:14.968Z,2.53
2018-09-24T19:55:49.396Z,2.43
2018-09-24T19:58:23.851Z,2.40
2018-09-24T20:00:58.530Z,2.43
2018-09-24T20:03:32.909Z,2.80
2018-09-24T20:06:07.220Z,1.77
2018-09-24T20:08:42.879Z,1.93
2018-09-24T20:11:18.137Z,2.13
2018-09-24T20:13:52.357Z,1.43
2018-09-24T20:16:26.546Z,1.30
2018-09-24T20:19:01.531Z,2.20
2018-09-24T20:21:36.167Z,2.77
2018-09-24T20:24:10.346Z,2.30
2018-09-24T20:26:44.444Z,1.93
2018-09-24T20:29:18.688Z,2.20
2018-09-24T20:31:53.077Z,1.97
2018-09-24T20:34:27.267Z,1.50
2018-09-24T20:37:01.462Z,1.83
2018-09-24T20:39:35.762Z,1.80
2018-09-24T20:42:09.942Z,1.33
2018-09-24T20:44:44.004Z,1.87
2018-09-24T20:47:18.217Z,2.07
2018-09-24T20:49:52.399Z,1.93
2018-09-24T20:52:26.621Z,2.37
2018-09-24T20:55:00.791Z,2.30
2018-09-24T20:57:35.414Z,2.10
2018-09-24T21:00:09.597Z,2.53
2018-09-24T21:02:43.872Z,1.93
2018-09-24T21:05:18.002Z,1.50
2018-09-24T21:07:52.813Z,1.90
2018-09-24T21:10:26.903Z,1.50
2018-09-24T21:13:01.166Z,1.70
2018-09-24T21:15:35.289Z,1.97
2018-09-24T21:18:09.468Z,1.70
2018-09-24T21:20:43.680Z,1.90
2018-09-24T21:23:18.204Z,1.83
2018-09-24T21:25:58.501Z,2.10
2018-09-24T21:28:32.612Z,1.97
2018-09-24T21:31:06.872Z,2.07
2018-09-24T21:33:41.586Z,1.67
2018-09-24T21:36:15.822Z,2.20
2018-09-24T21:38:50.658Z,1.57
2018-09-24T21:41:24.733Z,2.20
2018-09-24T21:43:58.928Z,3.40
2018-09-24T21:46:33.112Z,1.53
2018-09-24T21:49:07.686Z,1.97
2018-09-24T21:51:41.914Z,2.00
2018-09-24T21:54:16.075Z,2.30
2018-09-24T21:56:50.085Z,2.30
2018-09-24T21:59:24.275Z,1.83
2018-09-24T22:01:58.445Z,2.13
2018-09-24T22:04:32.479Z,1.60
2018-09-24T22:07:07.629Z,2.00
2018-09-24T22:09:42.232Z,1.87
2018-09-24T22:12:18.625Z,1.93
2018-09-24T22:14:52.828Z,2.00
2018-09-24T22:17:27.614Z,2.13
2018-09-24T22:20:01.799Z,1.80
2018-09-24T22:22:36.027Z,1.83
2018-09-24T22:25:10.329Z,2.70
2018-09-24T22:27:44.633Z,1.80
2018-09-24T22:30:19.293Z,2.50
2018-09-24T22:32:53.774Z,2.43
2018-09-24T22:35:27.858Z,2.33
2018-09-24T22:38:01.907Z,2.70
2018-09-24T22:40:36.231Z,2.87
2018-09-24T22:43:10.921Z,2.50
2018-09-24T22:45:45.236Z,2.80
2018-09-24T22:48:19.222Z,3.07
2018-09-24T22:50:53.428Z,3.17
2018-09-24T22:53:27.389Z,2.33
2018-09-24T22:56:01.485Z,3.30
2018-09-24T22:58:35.617Z,3.00
2018-09-24T23:01:09.770Z,2.83
2018-09-24T23:03:44.038Z,3.60
2018-09-24T23:06:18.248Z,3.00
2018-09-24T23:08:53.068Z,2.33
2018-09-24T23:11:27.140Z,2.73
2018-09-24T23:14:02.516Z,2.60
2018-09-24T23:16:36.540Z,3.23
2018-09-24T23:19:11.022Z,3.37
2018-09-24T23:21:45.101Z,3.13
2018-09-24T23:24:20.472Z,2.83
2018-09-24T23:26:55.093Z,3.33
2018-09-24T23:29:29.449Z,4.57
2018-09-24T23:32:03.543Z,5.20
2018-09-24T23:34:38.726Z,5.27
2018-09-24T23:37:12.804Z,4.47
2018-09-24T23:39:47.504Z,5.60
2018-09-24T23:42:21.656Z,5.43
2018-09-24T23:44:56.204Z,5.80
2018-09-24T23:47:30.332Z,4.50
2018-09-24T23:50:04.475Z,4.70
2018-09-24T23:52:39.474Z,3.90
2018-09-24T23:55:13.735Z,4.33
2018-09-24T23:57:47.903Z,4.80
